Time;durP1;ratioP1;P1;durP2;ratioP2;P2;SDS_P1;SDS_P2;PMS_P1;PMS_P2;Temp;Humidity;BMP_temperature;BMP_pressure;BME280_temperature;BME280_humidity;BME280_pressure;Samples;Min_cycle;Max_cycle;Signal;HPM_P1;HPM_P2
2022/07/30 00:00:04;;;;;;;3.30;2.00;;;25.50;63.30;;;;;;5112398;28;20945;-71
2022/07/30 00:02:29;;;;;;;5.80;2.10;;;25.40;63.30;;;;;;5112269;28;20395;-71
2022/07/30 00:04:55;;;;;;;3.17;2.00;;;25.50;63.40;;;;;;5112190;28;20384;-72
2022/07/30 00:07:21;;;;;;;2.70;1.92;;;25.50;63.40;;;;;;5104673;28;20917;-72
2022/07/30 00:09:46;;;;;;;2.80;2.00;;;25.40;63.30;;;;;;5112239;28;20388;-72
2022/07/30 00:12:12;;;;;;;2.90;1.90;;;25.50;63.40;;;;;;5099970;28;20404;-71
2022/07/30 00:14:38;;;;;;;2.25;2.03;;;25.40;63.30;;;;;;5109309;28;20404;-72
2022/07/30 00:17:04;;;;;;;2.40;2.00;;;25.40;63.30;;;;;;5111966;28;20907;-72
2022/07/30 00:19:30;;;;;;;2.35;1.90;;;25.40;63.30;;;;;;5111676;28;20438;-71
2022/07/30 00:21:56;;;;;;;2.25;2.05;;;25.40;63.30;;;;;;5112460;28;20397;-71
2022/07/30 00:24:22;;;;;;;2.70;2.15;;;25.50;63.30;;;;;;5102206;28;20385;-71
2022/07/30 00:26:48;;;;;;;2.20;2.00;;;25.40;63.20;;;;;;5111812;28;20410;-71
2022/07/30 00:29:13;;;;;;;2.50;1.90;;;25.40;63.20;;;;;;5111149;28;20388;-71
2022/07/30 00:31:39;;;;;;;2.87;1.90;;;25.40;63.20;;;;;;5111642;28;20504;-71
2022/07/30 00:34:05;;;;;;;2.70;1.77;;;25.40;63.20;;;;;;5111489;28;20383;-71
2022/07/30 00:36:31;;;;;;;2.15;1.80;;;25.40;63.20;;;;;;5111367;28;20899;-71
2022/07/30 00:38:57;;;;;;;2.28;1.90;;;25.40;63.20;;;;;;5111533;28;20385;-70
2022/07/30 00:41:23;;;;;;;2.20;1.93;;;25.40;63.20;;;;;;5111059;28;20423;-71
2022/07/30 00:43:49;;;;;;;2.78;1.98;;;25.40;63.20;;;;;;5101714;28;20421;-71
2022/07/30 00:46:15;;;;;;;2.30;2.10;;;25.40;63.30;;;;;;5111360;28;20819;-71
2022/07/30 00:48:41;;;;;;;2.03;1.83;;;25.40;63.30;;;;;;5111351;28;20429;-71
2022/07/30 00:51:07;;;;;;;3.08;1.90;;;25.40;63.30;;;;;;5109798;28;20437;-71
2022/07/30 00:53:33;;;;;;;2.38;1.80;;;25.40;63.30;;;;;;5110737;28;20388;-72
2022/07/30 00:55:59;;;;;;;2.65;1.90;;;25.40;63.30;;;;;;5108539;28;21202;-72
2022/07/30 00:58:25;;;;;;;3.27;1.87;;;25.40;63.30;;;;;;5102526;28;20408;-71
2022/07/30 01:00:51;;;;;;;3.17;2.13;;;25.40;63.20;;;;;;5102193;28;20412;-72
2022/07/30 01:03:17;;;;;;;2.00;1.80;;;25.40;63.30;;;;;;5110702;28;20469;-72
2022/07/30 01:05:42;;;;;;;3.65;1.90;;;25.40;63.80;;;;;;5110664;28;20407;-72
2022/07/30 01:08:08;;;;;;;3.30;1.70;;;25.40;63.10;;;;;;5102583;28;20388;-71
2022/07/30 01:10:34;;;;;;;2.33;1.77;;;25.30;63.00;;;;;;5110603;28;20888;-71
2022/07/30 01:13:00;;;;;;;1.70;1.60;;;25.40;63.20;;;;;;5110790;28;20388;-71
2022/07/30 01:15:27;;;;;;;3.30;2.08;;;25.40;63.20;;;;;;5110347;28;20391;-71
2022/07/30 01:17:56;;;;;;;2.05;1.83;;;25.40;63.10;;;;;;5110865;28;20435;-71
2022/07/30 01:20:27;;;;;;;2.30;2.10;;;25.30;63.00;;;;;;5110607;28;20402;-72
2022/07/30 01:23:20;;;;;;;2.30;2.10;;;25.30;63.00;;;;;;5110770;28;20887;-71
2022/07/30 01:26:04;;;;;;;2.55;2.00;;;25.30;62.90;;;;;;5108922;28;20406;-71
2022/07/30 01:28:34;;;;;;;2.72;1.90;;;25.40;63.00;;;;;;5109586;28;20393;-71
2022/07/30 01:31:02;;;;;;;1.98;1.75;;;25.30;63.00;;;;;;5100878;28;20381;-71
2022/07/30 01:33:29;;;;;;;2.83;1.98;;;25.30;62.90;;;;;;5109816;28;20388;-71
2022/07/30 01:35:57;;;;;;;2.65;2.10;;;25.30;63.00;;;;;;5110323;28;20484;-71
2022/07/30 01:38:25;;;;;;;2.22;1.98;;;25.30;63.10;;;;;;5110376;28;20384;-70
2022/07/30 01:40:53;;;;;;;2.42;1.80;;;25.30;63.10;;;;;;5110406;28;20428;-71
2022/07/30 01:43:21;;;;;;;3.10;2.00;;;25.30;63.10;;;;;;5107126;28;20396;-71
2022/07/30 01:45:48;;;;;;;2.00;1.75;;;25.30;63.00;;;;;;5110209;28;20506;-70
2022/07/30 01:48:17;;;;;;;2.05;1.80;;;25.30;63.00;;;;;;5100697;28;20483;-71
2022/07/30 01:50:45;;;;;;;2.40;2.00;;;25.30;63.00;;;;;;5100249;28;20392;-71
2022/07/30 01:53:15;;;;;;;2.60;1.92;;;25.30;62.90;;;;;;5100202;28;20397;-71
2022/07/30 01:55:42;;;;;;;2.47;1.83;;;25.30;62.90;;;;;;5107962;28;20465;-72
2022/07/30 01:58:11;;;;;;;2.72;1.73;;;25.30;62.90;;;;;;5100537;28;20400;-71
2022/07/30 02:00:39;;;;;;;2.10;1.73;;;25.30;63.00;;;;;;5110234;28;20387;-71
2022/07/30 02:03:07;;;;;;;3.20;1.60;;;25.30;63.00;;;;;;5109865;28;20388;-71
2022/07/30 02:05:35;;;;;;;2.90;1.67;;;25.30;62.90;;;;;;5109444;28;20459;-71
2022/07/30 02:08:09;;;;;;;2.30;1.67;;;25.30;63.00;;;;;;5107762;28;21243;-71
2022/07/30 02:10:47;;;;;;;4.43;1.75;;;25.30;62.90;;;;;;5110066;28;20381;-71
2022/07/30 02:13:19;;;;;;;8.85;1.90;;;25.30;62.90;;;;;;5094355;28;20465;-72
2022/07/30 02:15:53;;;;;;;6.03;1.80;;;25.30;63.00;;;;;;5093129;28;20493;-72
2022/07/30 02:18:45;;;;;;;5.93;1.65;;;25.30;63.00;;;;;;5092906;28;20400;-71
2022/07/30 02:21:11;;;;;;;3.67;1.60;;;25.30;63.00;;;;;;5092881;28;20392;-70
2022/07/30 02:23:44;;;;;;;3.58;1.67;;;25.30;62.90;;;;;;5110921;28;20424;-71
2022/07/30 02:26:14;;;;;;;3.17;1.70;;;25.30;62.90;;;;;;5111041;28;20454;-70
2022/07/30 02:28:44;;;;;;;4.40;1.70;;;25.30;62.90;;;;;;5111565;28;20439;-71
2022/07/30 02:31:11;;;;;;;2.73;1.60;;;25.30;62.80;;;;;;5111748;28;20431;-71
2022/07/30 02:33:40;;;;;;;2.90;1.70;;;25.30;62.80;;;;;;5111531;28;20377;-71
2022/07/30 02:36:07;;;;;;;2.85;1.67;;;25.30;62.80;;;;;;5111696;28;20917;-71
2022/07/30 02:38:35;;;;;;;3.80;1.60;;;25.30;62.80;;;;;;5110998;28;20456;-71
2022/07/30 02:41:03;;;;;;;1.70;1.40;;;25.30;62.70;;;;;;5111657;28;20412;-71
2022/07/30 02:43:30;;;;;;;1.75;1.30;;;25.30;62.80;;;;;;5111080;28;20388;-70
2022/07/30 02:45:57;;;;;;;2.67;1.60;;;25.30;62.70;;;;;;5111544;28;20420;-71
2022/07/30 02:48:26;;;;;;;1.83;1.40;;;25.30;62.70;;;;;;5111607;28;20394;-71
2022/07/30 02:50:53;;;;;;;2.00;1.60;;;25.20;62.70;;;;;;5111537;28;20702;-71
2022/07/30 02:53:21;;;;;;;2.20;1.40;;;25.20;62.70;;;;;;5111272;28;20423;-71
2022/07/30 02:55:47;;;;;;;2.70;1.60;;;25.30;62.70;;;;;;5111489;28;20391;-71
2022/07/30 02:58:18;;;;;;;2.10;1.60;;;25.30;62.70;;;;;;5111569;28;20396;-71
2022/07/30 03:00:45;;;;;;;2.17;1.65;;;25.20;62.70;;;;;;5111491;28;20380;-71
2022/07/30 03:03:12;;;;;;;2.55;1.38;;;25.20;62.70;;;;;;5111484;28;20432;-70
2022/07/30 03:05:40;;;;;;;3.08;1.60;;;25.20;62.70;;;;;;5110820;28;20395;-71
2022/07/30 03:08:08;;;;;;;1.95;1.63;;;25.20;62.70;;;;;;5111185;28;20404;-70
2022/07/30 03:10:35;;;;;;;2.00;1.55;;;25.20;62.70;;;;;;5092939;28;20392;-70
2022/07/30 03:13:04;;;;;;;2.30;1.35;;;25.20;62.70;;;;;;5111444;28;20417;-71
2022/07/30 03:15:33;;;;;;;1.70;1.45;;;25.20;62.70;;;;;;5096126;28;20465;-70
2022/07/30 03:18:00;;;;;;;2.40;1.50;;;25.20;62.70;;;;;;5115079;28;20526;-70
2022/07/30 03:20:29;;;;;;;2.83;1.35;;;25.20;62.80;;;;;;5096647;28;20802;-70
2022/07/30 03:22:58;;;;;;;2.60;1.50;;;25.20;62.80;;;;;;5114943;28;20384;-70
2022/07/30 03:25:26;;;;;;;2.92;1.50;;;25.20;62.80;;;;;;5114354;28;20882;-70
2022/07/30 03:27:54;;;;;;;2.40;1.60;;;25.20;62.80;;;;;;5096269;28;20499;-70
2022/07/30 03:30:25;;;;;;;2.38;1.60;;;25.20;62.70;;;;;;5096505;28;20391;-71
2022/07/30 03:32:56;;;;;;;2.20;1.43;;;25.10;62.70;;;;;;5096491;28;20439;-70
2022/07/30 03:35:25;;;;;;;1.70;1.60;;;25.20;62.80;;;;;;5095582;28;20388;-70
2022/07/30 03:37:53;;;;;;;2.10;1.70;;;25.10;62.70;;;;;;5096361;28;20380;-70
2022/07/30 03:40:20;;;;;;;1.85;1.58;;;25.20;62.60;;;;;;5114465;28;20406;-70
2022/07/30 03:42:46;;;;;;;3.33;1.80;;;25.10;62.60;;;;;;5096260;28;20413;-71
2022/07/30 03:45:12;;;;;;;2.10;1.70;;;25.10;62.60;;;;;;5114469;28;20412;-70
2022/07/30 03:47:40;;;;;;;2.53;1.60;;;25.20;62.70;;;;;;5113760;28;20447;-71
2022/07/30 03:50:07;;;;;;;2.42;1.30;;;25.10;62.60;;;;;;5114428;28;20856;-71
2022/07/30 03:52:36;;;;;;;2.73;1.57;;;25.20;62.70;;;;;;5096108;28;20825;-70
2022/07/30 03:55:03;;;;;;;1.70;1.42;;;25.10;62.60;;;;;;5096096;28;20883;-71
2022/07/30 03:57:29;;;;;;;2.08;1.50;;;25.10;62.60;;;;;;5113749;28;20384;-71
2022/07/30 03:59:54;;;;;;;1.90;1.70;;;25.10;62.60;;;;;;5095984;28;20437;-71
2022/07/30 04:02:20;;;;;;;1.95;1.30;;;25.10;62.60;;;;;;5114152;28;20380;-70
2022/07/30 04:04:46;;;;;;;3.35;1.60;;;25.10;62.70;;;;;;5095980;28;20380;-71
2022/07/30 04:07:12;;;;;;;2.00;1.40;;;25.10;62.70;;;;;;5113796;28;20453;-70
2022/07/30 04:09:38;;;;;;;1.60;1.40;;;25.10;62.70;;;;;;5113564;28;20384;-70
2022/07/30 04:12:04;;;;;;;2.95;1.52;;;25.10;62.70;;;;;;5114010;28;20758;-70
2022/07/30 04:14:40;;;;;;;2.22;1.60;;;25.10;62.70;;;;;;5113971;28;20405;-70
2022/07/30 04:17:15;;;;;;;2.20;1.50;;;25.10;62.70;;;;;;5113894;28;20388;-70
2022/07/30 04:19:48;;;;;;;2.67;1.55;;;25.10;62.70;;;;;;5113527;28;20822;-70
2022/07/30 04:22:19;;;;;;;1.95;1.40;;;25.10;62.70;;;;;;5113742;28;20420;-70
2022/07/30 04:24:45;;;;;;;1.80;1.50;;;25.10;62.70;;;;;;5113794;28;20388;-71
2022/07/30 04:27:11;;;;;;;2.20;1.60;;;25.10;62.70;;;;;;5113515;28;20443;-70
2022/07/30 04:29:37;;;;;;;2.30;1.30;;;25.10;62.50;;;;;;5095075;28;20769;-70
2022/07/30 04:32:03;;;;;;;1.88;1.52;;;25.10;62.70;;;;;;5095017;28;20388;-70
2022/07/30 04:34:29;;;;;;;2.05;1.42;;;25.10;62.70;;;;;;5113427;28;20381;-70
2022/07/30 04:36:54;;;;;;;1.67;1.50;;;25.10;62.60;;;;;;5113526;28;20614;-71
2022/07/30 04:39:20;;;;;;;2.00;1.57;;;25.10;62.60;;;;;;5113154;28;20433;-70
2022/07/30 04:41:46;;;;;;;2.70;1.52;;;25.10;62.60;;;;;;5094859;28;20974;-70
2022/07/30 04:44:11;;;;;;;2.40;1.70;;;25.10;62.60;;;;;;5094823;28;20744;-70
2022/07/30 04:46:37;;;;;;;1.87;1.63;;;25.10;63.20;;;;;;5094921;28;20503;-70
2022/07/30 04:49:03;;;;;;;2.20;1.60;;;25.10;62.60;;;;;;5094972;28;20454;-70
2022/07/30 04:51:31;;;;;;;2.20;1.40;;;25.10;62.60;;;;;;5094228;28;20380;-70
2022/07/30 04:53:58;;;;;;;2.05;1.45;;;25.10;62.70;;;;;;5094967;28;20389;-70
2022/07/30 04:56:25;;;;;;;2.10;1.50;;;25.10;62.70;;;;;;5113022;28;20388;-70
2022/07/30 04:58:52;;;;;;;1.65;1.42;;;25.10;62.70;;;;;;5113123;28;20380;-70
2022/07/30 05:01:45;;;;;;;1.88;1.70;;;25.10;62.70;;;;;;5113011;28;20412;-70
2022/07/30 05:04:11;;;;;;;2.15;1.70;;;25.10;62.70;;;;;;5112882;28;20815;-70
2022/07/30 05:06:38;;;;;;;1.67;1.58;;;25.10;62.60;;;;;;5112691;28;20453;-70
2022/07/30 05:09:05;;;;;;;1.92;1.63;;;25.10;62.70;;;;;;5112839;28;20388;-70
2022/07/30 05:11:31;;;;;;;1.70;1.48;;;25.00;62.60;;;;;;5112270;28;20920;-70
2022/07/30 05:13:56;;;;;;;1.87;1.77;;;25.10;62.60;;;;;;5112813;28;20480;-70
2022/07/30 05:16:22;;;;;;;1.83;1.73;;;25.10;62.70;;;;;;5112691;28;20868;-70
2022/07/30 05:18:48;;;;;;;1.87;1.67;;;25.00;62.50;;;;;;5112755;28;20396;-70
2022/07/30 05:21:13;;;;;;;1.90;1.70;;;25.00;62.60;;;;;;5112562;28;20383;-70
2022/07/30 05:23:39;;;;;;;2.15;1.70;;;25.00;62.70;;;;;;5093755;28;20450;-70
2022/07/30 05:26:04;;;;;;;1.57;1.40;;;25.00;62.60;;;;;;5112452;28;20380;-70
2022/07/30 05:28:30;;;;;;;1.90;1.80;;;25.10;62.70;;;;;;5112472;28;20391;-70
2022/07/30 05:30:56;;;;;;;2.47;1.50;;;25.00;62.60;;;;;;5094265;28;20400;-70
2022/07/30 05:33:22;;;;;;;3.00;1.60;;;25.00;62.70;;;;;;5112114;28;20478;-70
2022/07/30 05:35:48;;;;;;;1.70;1.60;;;25.00;62.70;;;;;;5112217;28;20489;-70
2022/07/30 05:38:14;;;;;;;2.08;1.60;;;25.00;62.60;;;;;;5093734;28;20387;-70
2022/07/30 05:40:40;;;;;;;1.60;1.50;;;25.00;62.60;;;;;;5112078;28;20392;-70
2022/07/30 05:43:05;;;;;;;1.80;1.43;;;25.00;62.60;;;;;;5112272;28;20383;-70
2022/07/30 05:45:31;;;;;;;1.87;1.60;;;25.00;62.70;;;;;;5111761;28;20416;-70
2022/07/30 05:47:57;;;;;;;1.48;1.30;;;25.00;62.70;;;;;;5112174;28;20765;-70
2022/07/30 05:50:23;;;;;;;2.40;1.67;;;25.00;62.60;;;;;;5112136;28;20389;-70
2022/07/30 05:52:48;;;;;;;2.28;1.58;;;25.00;62.70;;;;;;5112160;28;20388;-70
2022/07/30 05:55:14;;;;;;;1.70;1.60;;;25.00;62.60;;;;;;5112079;28;20424;-71
2022/07/30 05:57:41;;;;;;;2.63;1.42;;;25.00;62.50;;;;;;5111609;28;20875;-71
2022/07/30 06:00:09;;;;;;;2.13;1.50;;;25.00;62.50;;;;;;5111628;28;20385;-72
2022/07/30 06:02:35;;;;;;;2.30;1.60;;;25.00;63.10;;;;;;5096033;28;20399;-71
2022/07/30 06:05:01;;;;;;;5.13;2.40;;;25.00;62.40;;;;;;5111929;28;20403;-71
2022/07/30 06:07:27;;;;;;;3.42;2.35;;;25.00;62.30;;;;;;5089872;28;20426;-70
2022/07/30 06:09:53;;;;;;;4.70;2.35;;;24.90;62.10;;;;;;5091859;28;20446;-71
2022/07/30 06:12:18;;;;;;;4.03;2.43;;;24.90;62.50;;;;;;5091679;28;20479;-70
2022/07/30 06:14:44;;;;;;;2.92;2.60;;;24.90;63.10;;;;;;5091546;28;20378;-71
2022/07/30 06:17:10;;;;;;;3.30;2.65;;;24.90;62.80;;;;;;5099734;28;20388;-71
2022/07/30 06:19:35;;;;;;;4.10;2.47;;;24.90;63.10;;;;;;5110181;28;20392;-70
2022/07/30 06:22:01;;;;;;;3.83;2.30;;;24.90;63.00;;;;;;5111879;28;20415;-71
2022/07/30 06:24:26;;;;;;;3.37;2.70;;;24.90;62.80;;;;;;5111846;28;20376;-71
2022/07/30 06:26:52;;;;;;;3.90;2.70;;;25.00;62.80;;;;;;5111965;28;20741;-71
2022/07/30 06:29:18;;;;;;;3.30;2.55;;;24.90;62.00;;;;;;5111759;28;20387;-71
2022/07/30 06:31:43;;;;;;;2.83;2.17;;;24.90;62.60;;;;;;5109988;28;20392;-72
2022/07/30 06:34:09;;;;;;;2.40;1.73;;;24.90;61.70;;;;;;5111728;28;20784;-71
2022/07/30 06:36:35;;;;;;;4.10;1.83;;;24.90;59.20;;;;;;5110436;28;20445;-71
2022/07/30 06:39:01;;;;;;;3.10;1.92;;;24.90;58.30;;;;;;5111463;28;20875;-71
2022/07/30 06:41:26;;;;;;;3.85;2.10;;;24.90;58.80;;;;;;5110010;28;20447;-71
2022/07/30 06:43:52;;;;;;;3.40;2.40;;;24.90;59.10;;;;;;5111446;28;20391;-71
2022/07/30 06:46:17;;;;;;;4.80;2.30;;;24.90;60.70;;;;;;5111565;28;20424;-71
2022/07/30 06:48:43;;;;;;;3.90;2.47;;;24.90;60.90;;;;;;5112344;28;20787;-71
2022/07/30 06:51:09;;;;;;;4.87;2.50;;;24.90;60.80;;;;;;5114364;28;20384;-71
2022/07/30 06:53:34;;;;;;;6.40;2.57;;;24.90;60.50;;;;;;5114727;28;20403;-71
2022/07/30 06:56:00;;;;;;;6.85;2.63;;;24.90;60.60;;;;;;5097895;28;20405;-71
2022/07/30 06:58:26;;;;;;;4.90;2.43;;;24.90;60.90;;;;;;5093649;28;20400;-71
2022/07/30 07:00:52;;;;;;;4.43;2.58;;;24.90;61.20;;;;;;5094536;28;20389;-71
2022/07/30 07:03:17;;;;;;;5.27;2.40;;;24.90;61.60;;;;;;5095241;28;20404;-71
2022/07/30 07:05:43;;;;;;;6.72;2.50;;;24.90;61.80;;;;;;5096616;28;20404;-72
2022/07/30 07:08:09;;;;;;;5.63;2.60;;;24.90;61.80;;;;;;5114540;28;20489;-72
2022/07/30 07:10:34;;;;;;;5.50;2.77;;;24.90;61.70;;;;;;5097046;28;20435;-72
2022/07/30 07:13:00;;;;;;;3.53;2.90;;;24.90;61.80;;;;;;5115085;28;20392;-71
2022/07/30 07:15:25;;;;;;;4.50;2.80;;;24.90;62.10;;;;;;5115040;28;20391;-71
2022/07/30 07:17:51;;;;;;;4.90;2.90;;;24.90;62.20;;;;;;5114538;28;20876;-71
2022/07/30 07:20:17;;;;;;;7.35;2.70;;;24.90;62.20;;;;;;5114932;28;20828;-71
2022/07/30 07:22:43;;;;;;;6.73;2.83;;;24.90;62.20;;;;;;5110650;28;20963;-72
2022/07/30 07:25:09;;;;;;;8.52;2.88;;;24.90;62.10;;;;;;5099318;28;20411;-71
2022/07/30 07:27:38;;;;;;;7.63;2.70;;;24.90;62.30;;;;;;5113477;28;20412;-71
2022/07/30 07:30:04;;;;;;;4.55;2.70;;;24.90;62.20;;;;;;5113160;28;20414;-72
2022/07/30 07:32:30;;;;;;;6.47;2.70;;;24.90;62.30;;;;;;5112963;28;20393;-71
2022/07/30 07:34:56;;;;;;;8.57;2.80;;;24.90;62.20;;;;;;5103178;28;20400;-71
2022/07/30 07:37:21;;;;;;;8.48;2.70;;;25.00;62.50;;;;;;5106560;28;20395;-71
2022/07/30 07:39:47;;;;;;;8.50;2.70;;;25.00;62.40;;;;;;5112726;28;20429;-72
2022/07/30 07:42:13;;;;;;;5.15;2.58;;;24.90;62.10;;;;;;5115179;28;20387;-72
2022/07/30 07:44:39;;;;;;;8.38;2.67;;;24.90;62.10;;;;;;5112735;28;20476;-72
2022/07/30 07:47:05;;;;;;;5.40;2.60;;;24.90;62.20;;;;;;5112658;28;20500;-72
2022/07/30 07:49:31;;;;;;;5.05;2.65;;;25.00;62.20;;;;;;5102507;28;20407;-72
2022/07/30 07:51:56;;;;;;;5.73;2.60;;;25.00;62.40;;;;;;5112360;28;21064;-72
2022/07/30 07:54:22;;;;;;;11.33;2.87;;;25.00;62.30;;;;;;5112202;28;20387;-71
2022/07/30 07:56:47;;;;;;;7.20;2.70;;;25.00;62.40;;;;;;5112433;28;21119;-72
2022/07/30 07:59:13;;;;;;;11.73;2.60;;;25.00;62.20;;;;;;5111955;28;20384;-70
2022/07/30 08:01:39;;;;;;;7.68;2.60;;;24.90;62.20;;;;;;5111820;28;20380;-71
2022/07/30 08:04:05;;;;;;;6.97;2.80;;;24.90;62.70;;;;;;5110834;28;20480;-72
2022/07/30 08:06:30;;;;;;;8.13;2.77;;;25.00;62.50;;;;;;5111728;28;20412;-71
2022/07/30 08:08:56;;;;;;;6.03;2.80;;;25.00;62.70;;;;;;5102994;28;20435;-71
2022/07/30 08:11:22;;;;;;;6.13;2.70;;;25.00;63.00;;;;;;5101997;28;20900;-72
2022/07/30 08:13:47;;;;;;;6.03;3.00;;;25.00;63.10;;;;;;5111680;28;20396;-72
2022/07/30 08:16:13;;;;;;;4.45;2.67;;;25.00;63.10;;;;;;5104723;28;20380;-71
2022/07/30 08:18:39;;;;;;;5.57;2.55;;;25.00;63.50;;;;;;5111903;28;20487;-71
2022/07/30 08:21:07;;;;;;;6.57;2.88;;;25.00;63.40;;;;;;5111837;28;20883;-72
2022/07/30 08:23:33;;;;;;;6.43;2.80;;;25.00;62.50;;;;;;5101956;28;20491;-71
2022/07/30 08:25:59;;;;;;;4.70;2.60;;;25.00;63.10;;;;;;5111653;28;20384;-71
2022/07/30 08:28:25;;;;;;;6.30;3.00;;;25.00;63.30;;;;;;5111877;28;20464;-72
2022/07/30 08:30:51;;;;;;;4.45;2.60;;;25.00;63.40;;;;;;5100441;27;20387;-71
2022/07/30 08:33:17;;;;;;;4.32;2.58;;;25.10;63.90;;;;;;5111813;27;20384;-72
2022/07/30 08:35:43;;;;;;;4.18;2.45;;;25.10;63.50;;;;;;5110553;28;20399;-72
2022/07/30 08:38:08;;;;;;;4.00;2.60;;;25.10;63.20;;;;;;5093351;28;20380;-72
2022/07/30 08:40:34;;;;;;;3.65;2.40;;;25.10;63.00;;;;;;5092795;28;20391;-72
2022/07/30 08:43:05;;;;;;;4.35;2.80;;;25.10;62.90;;;;;;5111604;28;20380;-72
2022/07/30 08:45:31;;;;;;;6.60;3.10;;;25.10;62.90;;;;;;5112265;28;20925;-71
2022/07/30 08:47:59;;;;;;;5.70;3.67;;;25.10;63.00;;;;;;5111796;28;20983;-72
2022/07/30 08:50:25;;;;;;;6.05;4.30;;;25.10;62.90;;;;;;5109727;28;20745;-72
2022/07/30 08:52:55;;;;;;;5.00;3.40;;;25.10;63.00;;;;;;5112237;28;20434;-72
2022/07/30 08:55:22;;;;;;;5.75;3.25;;;25.10;62.40;;;;;;5104315;28;20450;-72
2022/07/30 08:57:48;;;;;;;5.40;2.97;;;25.10;62.70;;;;;;5111790;28;20398;-71
2022/07/30 09:00:15;;;;;;;6.28;2.80;;;25.10;62.80;;;;;;5110814;28;20737;-71
2022/07/30 09:02:41;;;;;;;4.85;3.33;;;25.10;62.80;;;;;;5109666;28;20392;-71
2022/07/30 09:05:08;;;;;;;4.45;2.90;;;25.10;62.80;;;;;;5111758;28;20383;-72
2022/07/30 09:07:35;;;;;;;5.15;3.22;;;25.00;62.70;;;;;;5111501;28;20408;-72
2022/07/30 09:10:02;;;;;;;4.73;3.60;;;25.10;62.70;;;;;;5097013;28;20461;-72
2022/07/30 09:12:34;;;;;;;8.32;3.65;;;25.00;62.50;;;;;;5111365;28;20388;-71
2022/07/30 09:15:11;;;;;;;6.70;3.33;;;25.00;62.50;;;;;;5112330;28;20467;-72
2022/07/30 09:17:55;;;;;;;6.17;3.00;;;25.00;62.50;;;;;;5102357;28;20392;-72
2022/07/30 09:20:27;;;;;;;4.68;3.30;;;25.00;62.50;;;;;;5109678;28;20391;-71
2022/07/30 09:22:58;;;;;;;5.90;3.70;;;25.00;62.40;;;;;;5112282;28;20385;-71
2022/07/30 09:25:48;;;;;;;5.60;4.03;;;25.00;62.40;;;;;;5097804;28;20388;-71
2022/07/30 09:28:14;;;;;;;5.97;3.70;;;25.00;62.40;;;;;;5102479;28;20404;-72
2022/07/30 09:30:49;;;;;;;6.15;3.72;;;25.00;62.30;;;;;;5111053;28;20725;-71
2022/07/30 09:33:31;;;;;;;6.05;4.00;;;25.00;62.10;;;;;;5112244;28;20453;-71
2022/07/30 09:35:57;;;;;;;6.68;4.18;;;25.00;62.10;;;;;;5114179;27;20481;-72
2022/07/30 09:38:22;;;;;;;5.70;3.88;;;25.10;62.20;;;;;;5093139;28;20490;-71
2022/07/30 09:40:53;;;;;;;5.45;3.85;;;25.10;62.10;;;;;;5093985;28;20903;-71
2022/07/30 09:43:19;;;;;;;6.10;4.00;;;25.10;62.00;;;;;;5093630;28;20881;-71
2022/07/30 09:45:54;;;;;;;5.87;4.20;;;25.10;62.00;;;;;;5093425;28;20424;-72
2022/07/30 09:48:24;;;;;;;7.05;4.43;;;25.10;61.90;;;;;;5093447;28;20419;-71
2022/07/30 09:50:52;;;;;;;7.57;4.43;;;25.10;61.90;;;;;;5111560;28;20387;-72
2022/07/30 09:53:18;;;;;;;5.45;4.30;;;25.10;61.80;;;;;;5111898;28;20744;-72
2022/07/30 09:55:44;;;;;;;5.20;4.18;;;25.10;61.70;;;;;;5111407;28;20377;-71
2022/07/30 09:58:11;;;;;;;6.28;4.10;;;25.10;61.70;;;;;;5111805;28;20427;-72
2022/07/30 10:00:38;;;;;;;4.95;4.00;;;25.10;61.70;;;;;;5112249;28;20445;-71
2022/07/30 10:03:20;;;;;;;8.07;4.10;;;25.10;61.70;;;;;;5111301;28;20468;-72
2022/07/30 10:05:56;;;;;;;5.50;3.50;;;25.20;61.80;;;;;;5111435;28;20399;-72
2022/07/30 10:08:50;;;;;;;6.13;3.90;;;25.20;61.70;;;;;;5111612;28;20412;-72
2022/07/30 10:11:21;;;;;;;5.78;4.07;;;25.20;61.60;;;;;;5110047;28;20887;-72
2022/07/30 10:13:49;;;;;;;5.27;4.50;;;25.20;61.60;;;;;;5110785;28;20387;-72
2022/07/30 10:16:15;;;;;;;6.18;4.10;;;25.20;61.50;;;;;;5093185;28;20729;-72
2022/07/30 10:18:41;;;;;;;5.07;3.72;;;25.20;61.50;;;;;;5111546;28;20384;-72
2022/07/30 10:21:08;;;;;;;5.28;4.18;;;25.20;61.40;;;;;;5093007;28;20403;-72
2022/07/30 10:23:34;;;;;;;5.20;4.10;;;25.30;61.30;;;;;;5095589;28;20388;-70
2022/07/30 10:26:01;;;;;;;5.32;4.07;;;25.30;61.20;;;;;;5115421;28;20395;-71
2022/07/30 10:28:28;;;;;;;5.15;4.13;;;25.30;61.00;;;;;;5115908;28;20756;-71
2022/07/30 10:30:56;;;;;;;6.15;4.35;;;25.30;61.00;;;;;;5116540;28;20541;-71
2022/07/30 10:33:27;;;;;;;6.30;4.43;;;25.40;61.00;;;;;;5097306;28;20392;-71
2022/07/30 10:35:53;;;;;;;7.20;4.25;;;25.50;61.10;;;;;;5122914;27;20447;-71
2022/07/30 10:38:21;;;;;;;5.45;4.57;;;25.50;61.00;;;;;;5134594;27;20390;-71
2022/07/30 10:41:00;;;;;;;9.07;4.63;;;25.60;61.00;;;;;;5135398;27;20387;-71
2022/07/30 10:43:50;;;;;;;8.73;4.53;;;25.70;61.00;;;;;;5136588;27;20835;-71
2022/07/30 10:46:29;;;;;;;6.57;4.60;;;25.60;61.20;;;;;;5115665;27;20436;-71
2022/07/30 10:49:10;;;;;;;6.63;5.13;;;25.50;61.60;;;;;;5129739;27;20414;-71
2022/07/30 10:51:50;;;;;;;6.88;4.80;;;25.50;61.60;;;;;;5106674;27;20399;-71
2022/07/30 10:54:36;;;;;;;5.93;4.75;;;25.50;61.40;;;;;;5096620;28;20412;-71
2022/07/30 10:57:14;;;;;;;5.28;4.72;;;25.40;61.20;;;;;;5120975;27;20383;-71
2022/07/30 10:59:54;;;;;;;6.20;4.90;;;25.40;61.20;;;;;;5120057;27;20386;-70
2022/07/30 11:02:22;;;;;;;8.48;5.60;;;25.30;62.10;;;;;;5115604;28;20966;-71
2022/07/30 11:04:48;;;;;;;9.73;6.15;;;25.30;61.60;;;;;;5115262;28;20388;-71
2022/07/30 11:07:23;;;;;;;8.73;6.05;;;25.30;61.30;;;;;;5121056;27;20414;-70
2022/07/30 11:09:51;;;;;;;7.55;5.78;;;25.30;61.30;;;;;;5135401;27;20435;-70
2022/07/30 11:12:44;;;;;;;11.02;5.93;;;25.30;60.90;;;;;;5135749;27;20383;-70
2022/07/30 11:15:11;;;;;;;8.98;5.60;;;25.20;60.60;;;;;;5135500;27;20374;-70
2022/07/30 11:17:59;;;;;;;13.93;6.40;;;25.20;61.00;;;;;;5117026;27;20391;-70
2022/07/30 11:20:26;;;;;;;18.27;8.20;;;25.20;61.20;;;;;;5135830;27;20403;-71
2022/07/30 11:22:52;;;;;;;24.05;10.68;;;25.20;61.10;;;;;;5135861;27;20374;-70
2022/07/30 11:25:21;;;;;;;17.13;9.40;;;25.20;61.10;;;;;;5136045;27;20383;-70
2022/07/30 11:27:49;;;;;;;31.50;12.25;;;25.20;61.10;;;;;;5117160;27;20410;-70
2022/07/30 11:30:14;;;;;;;41.10;15.30;;;25.20;61.10;;;;;;5135857;27;20423;-70
2022/07/30 11:32:41;;;;;;;26.77;11.17;;;25.20;61.80;;;;;;5135184;27;20390;-70
2022/07/30 11:35:20;;;;;;;20.15;9.20;;;25.20;62.00;;;;;;5116083;27;20414;-70
2022/07/30 11:38:07;;;;;;;15.18;7.03;;;25.20;61.70;;;;;;5135146;27;20394;-70
2022/07/30 11:40:43;;;;;;;15.90;6.90;;;25.20;61.60;;;;;;5135548;27;20381;-70
2022/07/30 11:43:23;;;;;;;12.75;6.03;;;25.20;61.50;;;;;;5124127;27;20456;-70
2022/07/30 11:45:51;;;;;;;13.93;5.93;;;25.20;61.40;;;;;;5111524;28;20380;-70
2022/07/30 11:48:19;;;;;;;14.32;5.80;;;25.20;61.30;;;;;;5114607;28;20416;-70
2022/07/30 11:50:46;;;;;;;14.70;6.28;;;25.20;61.00;;;;;;5094540;28;20378;-71
2022/07/30 11:53:19;;;;;;;11.85;6.75;;;25.20;61.20;;;;;;5099762;28;20937;-70
2022/07/30 11:55:54;;;;;;;12.85;5.95;;;25.20;61.10;;;;;;5113247;28;20380;-70
2022/07/30 11:58:25;;;;;;;10.70;5.88;;;25.20;61.50;;;;;;5113863;28;20868;-70
2022/07/30 12:00:50;;;;;;;15.30;5.75;;;25.30;62.30;;;;;;5113061;28;20411;-71
2022/07/30 12:03:18;;;;;;;10.98;5.30;;;25.30;62.60;;;;;;5112756;28;20915;-70
2022/07/30 12:05:45;;;;;;;12.45;5.05;;;25.30;62.40;;;;;;5113767;28;20933;-70
2022/07/30 12:08:12;;;;;;;12.77;5.30;;;25.30;62.50;;;;;;5099863;28;20911;-70
2022/07/30 12:10:39;;;;;;;11.82;4.70;;;25.30;62.40;;;;;;5113374;28;20411;-71
2022/07/30 12:13:13;;;;;;;12.10;5.10;;;25.30;62.20;;;;;;5113675;28;20486;-71
2022/07/30 12:15:42;;;;;;;11.77;5.00;;;25.30;62.30;;;;;;5114557;28;20384;-70
2022/07/30 12:18:11;;;;;;;10.27;4.95;;;25.30;62.40;;;;;;5113647;28;20408;-70
2022/07/30 12:20:37;;;;;;;9.77;4.80;;;25.30;61.80;;;;;;5113664;28;20940;-71
2022/07/30 12:23:09;;;;;;;8.30;4.50;;;25.30;62.00;;;;;;5113560;28;20393;-70
2022/07/30 12:25:40;;;;;;;8.27;4.33;;;25.30;61.80;;;;;;5114148;28;20454;-70
2022/07/30 12:28:07;;;;;;;9.50;4.28;;;25.30;61.60;;;;;;5115225;28;20451;-71
2022/07/30 12:30:36;;;;;;;9.35;3.95;;;25.30;61.60;;;;;;5113258;28;20392;-71
2022/07/30 12:33:02;;;;;;;8.68;4.00;;;25.30;61.40;;;;;;5113331;28;20412;-71
2022/07/30 12:35:50;;;;;;;8.95;4.13;;;25.30;60.90;;;;;;5095697;28;20385;-71
2022/07/30 12:38:17;;;;;;;7.20;4.00;;;25.30;60.90;;;;;;5114517;28;20860;-71
2022/07/30 12:40:54;;;;;;;7.43;4.00;;;25.30;61.00;;;;;;5114336;28;20384;-71
2022/07/30 12:43:49;;;;;;;9.25;4.13;;;25.30;61.00;;;;;;5096402;28;20384;-71
2022/07/30 12:46:24;;;;;;;9.32;4.50;;;25.30;61.10;;;;;;5115380;28;20404;-70
2022/07/30 12:48:56;;;;;;;9.48;4.50;;;25.30;61.10;;;;;;5115419;28;20473;-71
2022/07/30 12:51:27;;;;;;;10.23;4.47;;;25.40;61.30;;;;;;5116105;28;20387;-71